Time;durP1;ratioP1;P1;durP2;ratioP2;P2;SDS_P1;SDS_P2;PMS_P1;PMS_P2;Temp;Humidity;BMP_temperature;BMP_pressure;BME280_temperature;BME280_humidity;BME280_pressure;Samples;Min_cycle;Max_cycle;Signal;HPM_P1;HPM_P2
2022/09/05 00:01:47;;;;;;;4.50;1.67;;;;;;;22.22;57.88;102115.16;4919415;28;120035;-85
2022/09/05 00:04:26;;;;;;;4.45;1.80;;;;;;;22.19;58.13;102104.97;4921803;28;120484;-85
2022/09/05 00:07:00;;;;;;;4.97;1.83;;;;;;;22.28;58.12;102112.41;4927869;28;120208;-84
2022/09/05 00:09:55;;;;;;;4.60;1.73;;;;;;;22.27;57.81;102100.47;4931909;28;123253;-85
2022/09/05 00:12:22;;;;;;;5.60;1.80;;;;;;;22.26;57.90;102087.75;4910990;28;120188;-85
2022/09/05 00:14:57;;;;;;;7.93;1.90;;;;;;;22.31;57.72;102100.22;4924813;28;121707;-84
2022/09/05 00:17:37;;;;;;;6.05;2.10;;;;;;;22.32;58.00;102105.31;4926447;28;121664;-85
2022/09/05 00:20:53;;;;;;;6.15;1.80;;;;;;;22.28;58.00;102093.59;4924699;28;122207;-85
2022/09/05 00:23:39;;;;;;;4.78;1.90;;;;;;;22.26;58.27;102098.16;4880754;28;120103;-85
2022/09/05 00:26:05;;;;;;;4.40;1.98;;;;;;;22.22;57.52;102101.16;4925704;28;122391;-85
2022/09/05 00:29:11;;;;;;;4.10;1.87;;;;;;;22.19;58.19;102093.78;4926224;28;121435;-84
2022/09/05 00:31:44;;;;;;;4.53;1.77;;;;;;;22.17;57.86;102101.91;4939765;28;122515;-84
2022/09/05 00:34:10;;;;;;;3.05;1.60;;;;;;;22.16;57.85;102102.41;4951132;28;120224;-85
2022/09/05 00:36:46;;;;;;;3.83;1.80;;;;;;;22.13;58.38;102100.59;4912931;28;120799;-85
2022/09/05 00:39:17;;;;;;;6.30;1.95;;;;;;;22.09;58.36;102091.69;4931825;28;120141;-85
2022/09/05 00:41:46;;;;;;;6.47;1.80;;;;;;;22.10;58.01;102099.56;4932498;28;120358;-85
2022/09/05 00:44:13;;;;;;;6.83;1.90;;;;;;;22.04;58.13;102091.16;4929953;28;120569;-84
2022/09/05 00:47:11;;;;;;;5.57;2.10;;;;;;;22.00;58.68;102089.81;4897110;28;122798;-85
2022/09/05 00:49:47;;;;;;;4.03;1.70;;;;;;;21.96;59.03;102084.44;4898293;28;119877;-84
2022/09/05 00:52:32;;;;;;;5.95;1.90;;;;;;;21.95;59.01;102085.72;4929317;28;119752;-85
2022/09/05 00:55:04;;;;;;;5.13;1.63;;;;;;;21.96;59.12;102089.25;4946387;28;120947;-84
2022/09/05 00:58:07;;;;;;;5.90;2.03;;;;;;;21.98;58.73;102095.13;4931667;28;120001;-84
2022/09/05 01:00:49;;;;;;;5.40;1.65;;;;;;;21.95;59.44;102091.28;4910364;28;121539;-84
2022/09/05 01:03:33;;;;;;;5.88;2.08;;;;;;;21.93;58.74;102091.03;4959740;28;120106;-84
2022/09/05 01:06:39;;;;;;;5.93;1.90;;;;;;;21.92;59.45;102085.94;4926003;28;120717;-84
2022/09/05 01:09:20;;;;;;;5.47;2.05;;;;;;;21.91;59.31;102087.97;4927211;28;123476;-84
2022/09/05 01:11:54;;;;;;;6.00;1.80;;;;;;;21.87;59.09;102089.47;4945486;28;122361;-83
2022/09/05 01:14:45;;;;;;;7.78;2.00;;;;;;;21.87;59.67;102083.88;4924967;28;119764;-83
2022/09/05 01:17:29;;;;;;;4.78;1.90;;;;;;;21.85;59.36;102089.19;4929521;28;121686;-84
2022/09/05 01:20:07;;;;;;;6.10;2.00;;;;;;;21.85;59.61;102080.81;4919334;28;120226;-84
2022/09/05 01:22:48;;;;;;;6.60;2.00;;;;;;;21.84;59.66;102093.25;4928489;28;121377;-84
2022/09/05 01:25:28;;;;;;;5.20;1.90;;;;;;;21.84;59.61;102088.44;4928721;28;121100;-83
2022/09/05 01:28:07;;;;;;;8.35;2.40;;;;;;;21.82;59.80;102087.41;4925885;28;120397;-84
2022/09/05 01:30:51;;;;;;;5.97;1.98;;;;;;;21.76;60.05;102078.94;4911875;28;121768;-83
2022/09/05 01:33:43;;;;;;;5.45;1.95;;;;;;;21.76;59.68;102084.53;4926438;28;120183;-84
2022/09/05 01:36:20;;;;;;;6.25;2.10;;;;;;;21.75;60.29;102094.16;4913190;28;121221;-83
2022/09/05 01:39:11;;;;;;;8.55;1.92;;;;;;;21.74;60.21;102084.25;4928331;28;121466;-84
2022/09/05 01:41:48;;;;;;;6.68;1.90;;;;;;;21.73;60.36;102080.72;4928408;28;120867;-82
2022/09/05 01:44:22;;;;;;;6.35;1.85;;;;;;;;;;4932506;28;121635;-83
2022/09/05 01:47:00;;;;;;;4.63;1.92;;;;;;;21.69;59.98;102090.56;4933451;28;121090;-84
2022/09/05 01:49:50;;;;;;;5.82;1.90;;;;;;;21.66;60.15;102094.34;4945448;28;121506;-84
2022/09/05 01:52:31;;;;;;;6.22;2.03;;;;;;;21.62;60.55;102091.03;4909693;28;122087;-85
2022/09/05 01:55:43;;;;;;;6.50;1.90;;;;;;;21.64;60.38;102088.50;4942727;28;120588;-83
2022/09/05 01:58:25;;;;;;;7.07;2.13;;;;;;;21.56;60.39;102076.25;4928223;28;120652;-84
2022/09/05 02:01:12;;;;;;;7.53;1.95;;;;;;;21.59;60.88;102084.41;4911939;28;122115;-84
2022/09/05 02:03:46;;;;;;;5.97;1.90;;;;;;;21.57;60.50;102081.34;4944977;28;120085;-84
2022/09/05 02:06:33;;;;;;;6.50;2.00;;;;;;;21.56;60.74;102079.81;4928253;28;120227;-85
2022/09/05 02:09:14;;;;;;;7.50;2.40;;;;;;;21.54;61.09;102079.53;4948523;28;119993;-84
2022/09/05 02:11:52;;;;;;;6.20;2.03;;;;;;;21.51;61.27;102079.75;4945644;28;120956;-84
2022/09/05 02:14:36;;;;;;;9.10;2.20;;;;;;;21.49;61.23;102076.69;4944243;28;121698;-84
2022/09/05 02:17:29;;;;;;;5.80;2.03;;;;;;;21.47;61.66;102076.41;4944727;28;119823;-83
2022/09/05 02:20:17;;;;;;;8.53;1.93;;;;;;;21.45;61.96;102074.88;4929380;28;120514;-83
2022/09/05 02:22:49;;;;;;;6.53;1.90;;;;;;;21.44;61.96;102073.34;4960505;28;120665;-84
2022/09/05 02:25:25;;;;;;;8.85;2.10;;;;;;;21.46;62.17;102075.63;4928713;28;119977;-83
2022/09/05 02:28:00;;;;;;;7.47;2.40;;;;;;;21.51;62.12;102072.13;4910947;28;120550;-85
2022/09/05 02:30:31;;;;;;;6.85;2.25;;;;;;;21.51;62.06;102068.56;4932602;28;121399;-84
2022/09/05 02:33:06;;;;;;;7.53;1.92;;;;;;;21.54;61.77;102073.19;4917478;28;120181;-84
2022/09/05 02:35:44;;;;;;;6.95;2.00;;;;;;;21.52;61.94;102070.88;4926838;28;120236;-84
2022/09/05 02:38:22;;;;;;;7.30;2.10;;;;;;;21.52;62.05;102068.06;4925179;28;120208;-83
2022/09/05 02:40:58;;;;;;;8.25;2.22;;;;;;;21.47;62.37;102063.22;4926127;28;120884;-84
2022/09/05 02:43:58;;;;;;;7.70;2.00;;;;;;;21.54;61.90;102065.59;4926830;28;121576;-84
2022/09/05 02:46:44;;;;;;;7.63;2.30;;;;;;;21.45;62.20;102057.34;4928202;28;120267;-85
2022/09/05 02:50:00;;;;;;;8.97;2.20;;;;;;;21.50;61.81;102055.88;4912406;28;120328;-83
2022/09/05 02:52:29;;;;;;;7.53;2.25;;;;;;;21.42;62.35;102052.75;4928404;28;121499;-83
2022/09/05 02:54:57;;;;;;;6.32;2.45;;;;;;;21.42;62.17;102047.94;4943476;28;120347;-84
2022/09/05 02:57:44;;;;;;;5.70;2.20;;;;;;;21.48;62.06;102052.81;4930952;28;121716;-84
2022/09/05 03:00:18;;;;;;;6.07;2.15;;;;;;;21.44;61.94;102051.00;4937799;28;121439;-84
2022/09/05 03:03:05;;;;;;;7.55;2.15;;;;;;;21.40;62.07;102042.09;4940697;28;120379;-83
2022/09/05 03:05:37;;;;;;;7.30;2.22;;;;;;;21.39;62.16;102050.97;4940749;28;120174;-83
2022/09/05 03:08:36;;;;;;;7.57;2.20;;;;;;;21.31;62.19;102047.84;4908732;28;120278;-85
2022/09/05 03:11:21;;;;;;;6.47;2.40;;;;;;;21.31;62.08;102056.22;4923952;28;120115;-83
2022/09/05 03:14:24;;;;;;;8.32;2.35;;;;;;;21.32;62.37;102054.97;4927647;28;122592;-83
2022/09/05 03:17:08;;;;;;;6.10;2.30;;;;;;;21.30;62.42;102056.72;4943156;28;121564;-84
2022/09/05 03:20:11;;;;;;;6.30;2.20;;;;;;;21.29;62.22;102050.34;4931978;28;119972;-84
2022/09/05 03:23:15;;;;;;;7.88;2.00;;;;;;;21.28;62.48;102043.22;4929189;28;121215;-84
2022/09/05 03:26:25;;;;;;;8.20;2.40;;;;;;;21.32;62.55;102043.03;4926440;28;121343;-84
2022/09/05 03:29:09;;;;;;;7.60;2.30;;;;;;;21.30;62.97;102039.97;4917700;28;120329;-84
2022/09/05 03:31:55;;;;;;;6.10;2.33;;;;;;;21.27;62.48;102047.28;4934758;28;119695;-84
2022/09/05 03:34:24;;;;;;;6.90;2.20;;;;;;;21.27;62.70;102038.91;4944077;28;120222;-84
2022/09/05 03:36:58;;;;;;;6.50;2.22;;;;;;;21.25;62.40;102032.28;4928522;28;122809;-84
2022/09/05 03:39:46;;;;;;;6.03;2.50;;;;;;;21.27;61.96;102038.91;4946055;28;120410;-84
2022/09/05 03:42:24;;;;;;;6.90;2.47;;;;;;;21.26;62.45;102045.75;4910331;28;123338;-84
2022/09/05 03:45:17;;;;;;;6.22;2.38;;;;;;;21.28;62.27;102036.88;4934831;28;120142;-84
2022/09/05 03:48:16;;;;;;;5.78;2.42;;;;;;;21.29;62.00;102047.56;4931076;28;120874;-84
2022/09/05 03:50:41;;;;;;;5.97;2.63;;;;;;;21.30;62.18;102057.50;4895084;28;121438;-84
2022/09/05 03:53:31;;;;;;;8.03;2.37;;;;;;;21.30;61.82;102057.50;4946898;28;120169;-84
2022/09/05 03:56:48;;;;;;;7.28;2.72;;;;;;;21.27;61.90;102052.09;4945490;28;120750;-84
2022/09/05 03:59:20;;;;;;;6.40;2.50;;;;;;;21.25;62.09;102051.84;4902189;28;121563;-84
2022/09/05 04:02:04;;;;;;;7.38;2.50;;;;;;;21.20;61.93;102047.69;4930913;28;120277;-84
2022/09/05 04:04:50;;;;;;;6.03;2.40;;;;;;;21.20;62.32;102047.69;4927799;28;122636;-85
2022/09/05 04:07:28;;;;;;;6.40;2.28;;;;;;;21.21;62.25;102045.69;4931954;28;122842;-84
2022/09/05 04:10:06;;;;;;;11.18;2.60;;;;;;;21.20;62.31;102042.13;4933914;28;120294;-83
2022/09/05 04:12:46;;;;;;;9.40;2.83;;;;;;;21.09;62.21;102031.63;4926172;28;120088;-84
2022/09/05 04:15:29;;;;;;;9.13;2.90;;;;;;;21.18;62.02;102049.47;4946664;28;120414;-83
2022/09/05 04:18:17;;;;;;;9.70;2.97;;;;;;;21.22;62.29;102056.34;4929344;28;120438;-84
2022/09/05 04:21:13;;;;;;;6.45;2.60;;;;;;;21.18;61.78;102049.47;4920806;28;121431;-84
2022/09/05 04:23:47;;;;;;;6.50;2.95;;;;;;;21.23;61.74;102057.88;4928465;28;121645;-83
2022/09/05 04:26:41;;;;;;;5.68;2.75;;;;;;;21.22;61.56;102066.75;4929592;28;120270;-83
2022/09/05 04:29:13;;;;;;;5.47;2.92;;;;;;;21.18;61.78;102060.63;4929980;28;121505;-84
2022/09/05 04:31:46;;;;;;;5.72;2.80;;;;;;;21.17;61.74;102065.44;4930015;28;121438;-84
2022/09/05 04:34:18;;;;;;;5.90;2.67;;;;;;;21.26;61.41;102062.50;4949182;28;120485;-83
2022/09/05 04:36:46;;;;;;;7.47;2.78;;;;;;;21.23;61.53;102054.31;4946501;28;120183;-83
2022/09/05 04:39:18;;;;;;;6.50;2.83;;;;;;;21.29;61.24;102060.75;4929406;28;120231;-83
2022/09/05 04:42:01;;;;;;;6.93;3.00;;;;;;;21.23;61.14;102049.50;4928473;28;121808;-83
2022/09/05 04:44:55;;;;;;;4.97;2.65;;;;;;;21.28;61.48;102054.41;4913921;28;120256;-83
2022/09/05 04:47:33;;;;;;;6.13;2.63;;;;;;;21.34;61.43;102051.69;4929775;28;120732;-83
2022/09/05 04:50:17;;;;;;;5.88;3.00;;;;;;;21.35;61.64;102047.63;4913899;28;122453;-83
2022/09/05 04:53:25;;;;;;;6.88;3.17;;;;;;;21.44;61.15;102056.59;4947977;28;120870;-83
2022/09/05 04:55:56;;;;;;;7.25;3.08;;;;;;;21.51;61.19;102058.16;4928956;28;120200;-84
2022/09/05 04:58:30;;;;;;;6.38;3.20;;;;;;;21.48;60.62;102052.81;4931473;28;121418;-84
2022/09/05 05:01:00;;;;;;;5.55;3.15;;;;;;;21.59;60.38;102073.25;4945881;28;120326;-84
2022/09/05 05:03:29;;;;;;;10.93;3.40;;;;;;;21.61;60.01;102065.13;4911062;28;122336;-83
2022/09/05 05:06:07;;;;;;;7.05;3.30;;;;;;;21.62;59.05;102066.66;4928019;28;119994;-84
2022/09/05 05:08:53;;;;;;;5.20;3.00;;;;;;;21.65;60.04;102070.50;4928065;28;120538;-83
2022/09/05 05:11:34;;;;;;;5.75;3.20;;;;;;;21.69;60.32;102073.81;4946263;28;123250;-83
2022/09/05 05:14:07;;;;;;;7.32;3.25;;;;;;;21.64;59.80;102058.56;4948861;28;121448;-83
2022/09/05 05:16:40;;;;;;;6.63;3.20;;;;;;;21.64;59.70;102061.34;4926167;28;121373;-84
2022/09/05 05:19:21;;;;;;;7.40;3.30;;;;;;;21.76;59.10;102076.16;4947990;28;121501;-84
2022/09/05 05:21:53;;;;;;;7.83;3.20;;;;;;;21.77;59.68;102080.50;4952543;28;119952;-84
2022/09/05 05:24:52;;;;;;;7.47;3.40;;;;;;;21.81;59.10;102081.03;4943964;28;121719;-83
2022/09/05 05:27:32;;;;;;;6.20;3.20;;;;;;;21.81;59.11;102094.25;4910165;28;121395;-83
2022/09/05 05:30:10;;;;;;;6.57;3.55;;;;;;;21.79;59.10;102086.34;4912837;28;121118;-83
2022/09/05 05:32:42;;;;;;;7.30;3.53;;;;;;;21.79;59.15;102080.78;4928426;28;121577;-83
2022/09/05 05:35:22;;;;;;;6.30;3.50;;;;;;;21.83;59.63;102086.91;4906112;28;121202;-85
2022/09/05 05:37:54;;;;;;;7.60;3.53;;;;;;;21.82;58.42;102088.16;4934221;28;120703;-84
2022/09/05 05:40:26;;;;;;;4.95;3.30;;;;;;;21.90;59.29;102094.81;4929657;28;123283;-83
2022/09/05 05:43:11;;;;;;;5.28;3.22;;;;;;;21.94;58.97;102094.59;4950142;28;120913;-84
2022/09/05 05:45:37;;;;;;;6.20;3.50;;;;;;;21.94;59.15;102098.16;4937960;28;121253;-85
2022/09/05 05:48:04;;;;;;;6.93;3.40;;;;;;;22.00;58.81;102104.56;4945424;28;120520;-85
2022/09/05 05:51:08;;;;;;;7.63;3.50;;;;;;;22.03;57.93;102106.38;4915257;28;120374;-84
2022/09/05 05:54:00;;;;;;;5.88;3.60;;;;;;;22.06;57.94;102115.81;4940079;28;121366;-84
2022/09/05 05:56:45;;;;;;;7.30;3.50;;;;;;;22.12;58.19;102118.63;4891217;28;121395;-84
2022/09/05 05:59:32;;;;;;;6.05;3.63;;;;;;;22.17;58.25;102120.69;4909599;28;120838;-85
2022/09/05 06:02:16;;;;;;;7.05;3.70;;;;;;;22.19;58.34;102121.72;4925744;28;122814;-84
2022/09/05 06:04:42;;;;;;;7.03;3.70;;;;;;;22.24;58.11;102123.03;4945319;28;120497;-84
2022/09/05 06:07:29;;;;;;;6.50;3.67;;;;;;;22.29;58.37;102125.13;4919403;28;122624;-85
2022/09/05 06:09:58;;;;;;;9.40;3.70;;;;;;;22.34;57.99;102127.19;4926584;28;119995;-84
2022/09/05 06:13:01;;;;;;;6.68;3.88;;;;;;;22.40;57.86;102125.19;4943352;28;120685;-84
2022/09/05 06:15:54;;;;;;;7.28;3.90;;;;;;;22.44;57.98;102122.16;4944018;28;120432;-85
2022/09/05 06:18:23;;;;;;;7.72;3.88;;;;;;;22.52;58.15;102135.19;4931824;28;120234;-85
2022/09/05 06:21:23;;;;;;;7.20;4.20;;;;;;;22.58;57.56;102133.19;4946620;28;120751;-85
2022/09/05 06:24:07;;;;;;;7.90;3.97;;;;;;;22.56;56.90;102130.13;4924514;28;121518;-86
2022/09/05 06:27:10;;;;;;;9.15;4.18;;;;;;;22.69;57.24;102143.66;4947359;28;120347;-84
2022/09/05 06:29:54;;;;;;;7.43;4.10;;;;;;;22.77;57.93;102143.97;4928835;28;123624;-85
2022/09/05 06:32:40;;;;;;;7.97;4.35;;;;;;;22.83;56.91;102139.94;4928537;28;122846;-85
2022/09/05 06:35:21;;;;;;;12.90;4.73;;;;;;;22.84;57.40;102130.28;4909461;28;121483;-85
2022/09/05 06:37:59;;;;;;;13.98;4.57;;;;;;;22.95;57.27;102133.16;4945741;28;121275;-85
2022/09/05 06:40:46;;;;;;;9.63;4.25;;;;;;;23.02;57.04;102145.13;4912480;28;120247;-83
2022/09/05 06:43:30;;;;;;;11.40;4.27;;;;;;;23.09;56.84;102142.59;4930577;28;122440;-85
2022/09/05 06:46:00;;;;;;;10.90;4.28;;;;;;;23.13;56.20;102133.97;4940660;28;122344;-84
2022/09/05 06:48:52;;;;;;;8.40;4.38;;;;;;;23.16;55.59;102138.53;4911631;28;120238;-84
2022/09/05 06:51:41;;;;;;;8.90;4.53;;;;;;;23.19;56.04;102141.13;4948550;28;121037;-84
2022/09/05 06:54:41;;;;;;;7.95;4.30;;;;;;;23.21;55.71;102138.59;4928030;28;123459;-84
2022/09/05 06:57:34;;;;;;;9.07;4.10;;;;;;;23.22;55.43;102126.13;4928591;28;121455;-85
2022/09/05 07:00:10;;;;;;;7.13;3.90;;;;;;;23.28;56.04;102143.69;4914438;28;123320;-85
2022/09/05 07:02:47;;;;;;;7.38;3.95;;;;;;;23.31;55.35;102132.75;4923313;28;122105;-85
2022/09/05 07:05:27;;;;;;;8.20;4.00;;;;;;;23.44;55.82;102155.44;4927614;28;122592;-84
2022/09/05 07:08:01;;;;;;;6.15;3.92;;;;;;;23.51;55.73;102143.75;4916203;28;123501;-84
2022/09/05 07:10:34;;;;;;;7.63;3.80;;;;;;;23.64;54.68;102149.63;4937304;28;120884;-84
2022/09/05 07:13:23;;;;;;;8.45;4.05;;;;;;;23.76;55.21;102151.19;4932578;28;122284;-84
2022/09/05 07:15:57;;;;;;;6.30;3.83;;;;;;;23.82;55.00;102146.34;4935765;28;122799;-85
2022/09/05 07:18:47;;;;;;;6.90;4.00;;;;;;;23.84;53.43;102143.81;4952578;28;123237;-85
2022/09/05 07:21:32;;;;;;;7.43;3.88;;;;;;;23.84;54.60;102143.81;4930125;28;122696;-84
2022/09/05 07:24:04;;;;;;;7.17;3.53;;;;;;;23.94;54.29;102149.19;4939091;28;121752;-84
2022/09/05 07:26:49;;;;;;;6.27;3.90;;;;;;;23.86;53.30;102140.50;4925142;28;121679;-84
2022/09/05 07:29:19;;;;;;;8.55;4.25;;;;;;;23.89;53.17;102151.44;4921720;28;123376;-84
2022/09/05 07:31:53;;;;;;;6.78;3.72;;;;;;;23.93;53.43;102162.44;4910419;28;120777;-84
2022/09/05 07:34:30;;;;;;;5.60;3.90;;;;;;;23.96;53.56;102160.63;4927328;28;123923;-84
2022/09/05 07:37:05;;;;;;;6.93;3.80;;;;;;;23.93;53.49;102159.63;4953835;28;120548;-84
2022/09/05 07:39:40;;;;;;;7.70;4.05;;;;;;;23.93;53.80;102156.06;4944327;28;121342;-83
2022/09/05 07:42:13;;;;;;;5.75;3.80;;;;;;;23.87;53.23;102153.22;4943512;28;122380;-85
2022/09/05 07:44:48;;;;;;;8.48;3.80;;;;;;;23.88;53.51;102149.16;4937739;28;122090;-85
2022/09/05 07:47:24;;;;;;;5.82;3.60;;;;;;;23.96;53.30;102167.00;4909840;28;121157;-84
2022/09/05 07:49:51;;;;;;;7.95;4.03;;;;;;;24.00;53.92;102161.16;4946215;28;121153;-85
2022/09/05 07:52:19;;;;;;;10.68;4.30;;;;;;;24.01;53.10;102157.06;4917905;28;120860;-84
2022/09/05 07:55:28;;;;;;;6.38;3.70;;;;;;;24.09;52.97;102156.03;4924898;28;120896;-85
2022/09/05 07:57:58;;;;;;;6.88;3.67;;;;;;;24.19;53.33;102159.38;4933775;28;123897;-84
2022/09/05 08:00:26;;;;;;;8.00;3.90;;;;;;;24.24;52.51;102149.41;4925984;28;123398;-83
2022/09/05 08:02:53;;;;;;;5.15;3.65;;;;;;;24.33;52.33;102161.16;4936806;28;121382;-85
2022/09/05 08:05:20;;;;;;;5.53;3.65;;;;;;;24.41;51.23;102159.38;4913887;28;124841;-84
2022/09/05 08:07:51;;;;;;;6.80;4.05;;;;;;;24.56;52.39;102170.28;4922405;28;123106;-84
2022/09/05 08:10:26;;;;;;;6.15;3.75;;;;;;;24.69;51.68;102166.97;4907007;28;122265;-83
2022/09/05 08:12:58;;;;;;;7.60;3.80;;;;;;;24.75;51.18;102170.50;4925811;28;121698;-83
2022/09/05 08:15:27;;;;;;;6.05;3.70;;;;;;;24.80;51.51;102158.50;4916192;28;124683;-83
2022/09/05 08:17:56;;;;;;;5.28;3.60;;;;;;;24.93;50.91;102172.00;4939734;28;121966;-82
2022/09/05 08:20:21;;;;;;;6.32;3.83;;;;;;;24.98;51.07;102171.19;4935155;28;122207;-82
2022/09/05 08:23:24;;;;;;;6.57;3.72;;;;;;;25.03;50.88;102165.59;4941929;28;122501;-82
2022/09/05 08:26:04;;;;;;;5.13;3.35;;;;;;;25.24;51.04;102176.47;4923275;28;122708;-83
2022/09/05 08:28:44;;;;;;;7.53;3.80;;;;;;;25.43;50.12;102177.41;4941286;28;122494;-83
2022/09/05 08:31:20;;;;;;;6.73;3.50;;;;;;;25.48;50.40;102170.97;4939629;28;122817;-82
2022/09/05 08:33:50;;;;;;;5.45;3.55;;;;;;;25.65;48.76;102179.31;4940888;28;122588;-82
2022/09/05 08:36:37;;;;;;;7.77;3.67;;;;;;;25.79;49.86;102183.84;4908724;28;124657;-83
2022/09/05 08:39:06;;;;;;;6.40;3.95;;;;;;;25.87;48.61;102178.44;4941744;28;124132;-82
2022/09/05 08:41:50;;;;;;;5.73;3.50;;;;;;;25.99;48.94;102179.84;4949537;28;121922;-82
2022/09/05 08:44:20;;;;;;;6.53;3.60;;;;;;;26.06;49.64;102173.69;4936355;28;122691;-83
2022/09/05 08:46:46;;;;;;;5.65;3.65;;;;;;;26.11;49.22;102170.06;4933812;28;126401;-83
2022/09/05 08:49:26;;;;;;;8.07;3.57;;;;;;;26.09;47.21;102172.63;4952182;28;122413;-82
2022/09/05 08:52:01;;;;;;;8.20;3.67;;;;;;;25.92;47.42;102172.75;4928482;28;124306;-81
2022/09/05 08:54:54;;;;;;;5.75;3.60;;;;;;;25.87;48.22;102175.63;4939426;28;124059;-82
2022/09/05 08:57:45;;;;;;;5.87;3.50;;;;;;;26.00;48.63;102170.91;4923273;28;123518;-82
2022/09/05 09:00:17;;;;;;;8.00;3.47;;;;;;;26.06;47.66;102167.28;4949668;28;122669;-82
2022/09/05 09:03:28;;;;;;;5.38;3.20;;;;;;;26.16;48.63;102169.22;4910250;28;122007;-82
2022/09/05 09:05:54;;;;;;;5.80;3.30;;;;;;;26.40;47.49;102168.53;4831106;28;125618;-82
2022/09/05 09:08:46;;;;;;;5.65;3.33;;;;;;;26.47;46.11;102170.00;4909299;28;125664;-83
2022/09/05 09:11:36;;;;;;;6.22;3.30;;;;;;;26.44;45.46;102176.69;4941494;28;122836;-82
2022/09/05 09:14:21;;;;;;;5.70;3.30;;;;;;;26.41;47.13;102170.06;4940357;28;122239;-82
2022/09/05 09:16:49;;;;;;;7.10;3.50;;;;;;;26.44;46.55;102162.59;4929645;28;125136;-81
2022/09/05 09:19:51;;;;;;;6.37;3.17;;;;;;;26.47;46.79;102162.31;4938927;28;123130;-83
2022/09/05 09:22:38;;;;;;;5.72;3.45;;;;;;;26.48;46.41;102154.63;4908332;28;123992;-83
2022/09/05 09:25:15;;;;;;;5.18;3.17;;;;;;;26.51;46.81;102159.22;4907098;28;122577;-83
2022/09/05 09:27:52;;;;;;;5.13;3.10;;;;;;;26.55;45.42;102162.50;4938111;28;122466;-83
2022/09/05 09:30:19;;;;;;;4.35;3.13;;;;;;;26.55;45.38;102151.25;4941033;28;124152;-83
2022/09/05 09:32:48;;;;;;;5.32;2.92;;;;;;;26.50;45.02;102144.41;4928207;28;124800;-83
2022/09/05 09:35:33;;;;;;;6.90;3.35;;;;;;;26.53;45.57;102148.97;4927317;28;123910;-83
2022/09/05 09:38:27;;;;;;;5.78;3.00;;;;;;;26.56;46.37;102161.22;4895759;28;125488;-83
2022/09/05 09:41:17;;;;;;;6.20;2.92;;;;;;;26.56;44.81;102153.53;4914350;28;123993;-84
2022/09/05 09:43:51;;;;;;;4.25;3.05;;;;;;;26.63;46.05;102152.19;4926183;28;123115;-83
2022/09/05 09:46:47;;;;;;;6.33;2.80;;;;;;;26.66;45.19;102145.47;4925634;28;123293;-83
2022/09/05 09:49:21;;;;;;;5.75;3.25;;;;;;;26.71;44.84;102152.34;4930021;28;124068;-84
2022/09/05 09:51:47;;;;;;;5.85;2.83;;;;;;;26.76;45.27;102155.09;4935736;28;125020;-84
2022/09/05 09:54:52;;;;;;;4.73;3.20;;;;;;;26.78;45.79;102152.53;4920907;28;122648;-83
2022/09/05 09:58:00;;;;;;;4.97;3.00;;;;;;;26.66;43.71;102144.72;4925332;28;123381;-84
2022/09/05 10:00:49;;;;;;;5.88;3.28;;;;;;;26.50;44.04;102140.78;4912445;28;123779;-84
2022/09/05 10:04:07;;;;;;;4.28;2.90;;;;;;;26.41;43.36;102139.09;4921328;28;122784;-85
2022/09/05 10:06:58;;;;;;;7.43;3.20;;;;;;;26.42;44.54;102143.44;4921811;28;123386;-85
2022/09/05 10:10:05;;;;;;;5.37;3.20;;;;;;;26.37;43.54;102135.06;4920241;28;122524;-84
2022/09/05 10:12:44;;;;;;;5.95;3.30;;;;;;;26.44;43.80;102134.47;4946550;28;122973;-84
2022/09/05 10:15:40;;;;;;;5.53;2.97;;;;;;;26.48;43.43;102134.94;4935773;28;122713;-85
2022/09/05 10:18:18;;;;;;;5.63;3.30;;;;;;;26.55;44.63;102140.75;4930157;28;122617;-85
2022/09/05 10:20:59;;;;;;;5.72;3.17;;;;;;;26.61;44.49;102135.81;4944661;28;122424;-84
2022/09/05 10:23:45;;;;;;;5.73;3.10;;;;;;;26.62;42.79;102130.94;4924134;28;123839;-84
2022/09/05 10:26:20;;;;;;;5.72;2.92;;;;;;;26.63;43.06;102128.91;4921990;28;123182;-84
2022/09/05 10:29:17;;;;;;;5.07;2.90;;;;;;;26.66;42.84;102125.03;4938344;28;124425;-84
2022/09/05 10:31:55;;;;;;;6.03;3.20;;;;;;;26.67;42.76;102123.72;4919523;28;122648;-84
2022/09/05 10:34:59;;;;;;;5.00;2.90;;;;;;;26.69;42.73;102116.28;4905823;28;123185;-84
2022/09/05 10:37:40;;;;;;;5.95;2.97;;;;;;;26.69;42.16;102121.16;4932914;28;124205;-83
2022/09/05 10:40:14;;;;;;;5.37;2.60;;;;;;;26.70;42.45;102129.06;4923120;28;122911;-85
2022/09/05 10:42:46;;;;;;;6.00;2.90;;;;;;;26.66;41.36;102108.91;4918020;28;122830;-84
2022/09/05 10:45:23;;;;;;;5.78;2.92;;;;;;;26.69;41.87;102116.28;4920773;28;124757;-84
2022/09/05 10:48:10;;;;;;;5.68;2.88;;;;;;;26.72;42.05;102115.22;4916534;28;122848;-82
2022/09/05 10:50:42;;;;;;;6.60;3.00;;;;;;;26.69;42.42;102107.06;4933222;28;123205;-82
2022/09/05 10:53:41;;;;;;;4.95;2.92;;;;;;;26.77;42.09;102119.28;4890679;28;123019;-83
2022/09/05 10:56:15;;;;;;;6.13;2.80;;;;;;;26.77;42.07;102114.41;4891761;28;122831;-83
2022/09/05 10:58:46;;;;;;;6.20;3.00;;;;;;;26.80;42.14;102110.53;4890217;28;124169;-82
2022/09/05 11:01:24;;;;;;;5.10;2.80;;;;;;;26.75;41.02;102110.59;4893876;28;122633;-82
2022/09/05 11:04:04;;;;;;;4.53;2.60;;;;;;;26.70;41.81;102112.16;4893853;28;123171;-83
2022/09/05 11:06:45;;;;;;;5.18;2.88;;;;;;;26.58;40.78;102110.78;4875811;28;123586;-83
2022/09/05 11:09:20;;;;;;;5.22;3.17;;;;;;;26.47;40.92;102110.91;4877793;28;123216;-83
2022/09/05 11:12:02;;;;;;;5.82;3.00;;;;;;;26.35;40.90;102101.06;4877893;28;124287;-83
2022/09/05 11:14:41;;;;;;;5.10;2.80;;;;;;;26.36;40.92;102116.66;4878298;28;122295;-83
2022/09/05 11:17:35;;;;;;;4.90;2.90;;;;;;;26.40;41.82;102109.44;4892011;28;122378;-82
2022/09/05 11:20:32;;;;;;;5.82;3.03;;;;;;;26.46;41.17;102100.94;4893566;28;122340;-83
2022/09/05 11:23:16;;;;;;;5.72;3.05;;;;;;;26.51;41.87;102098.09;4885654;28;123598;-84
2022/09/05 11:25:45;;;;;;;6.72;2.90;;;;;;;26.54;41.35;102087.81;4892621;28;122743;-83
2022/09/05 11:28:26;;;;;;;4.72;2.83;;;;;;;26.68;42.05;102102.72;4893714;28;122788;-81
2022/09/05 11:30:55;;;;;;;6.82;2.80;;;;;;;26.70;40.64;102084.03;4901749;28;122605;-83
2022/09/05 11:33:26;;;;;;;6.60;3.00;;;;;;;26.82;40.81;102091.03;4950557;28;122900;-82
2022/09/05 11:36:04;;;;;;;6.05;2.88;;;;;;;26.79;41.07;102080.09;4938723;28;122667;-81
2022/09/05 11:39:25;;;;;;;6.80;3.00;;;;;;;26.84;40.75;102093.31;4938316;28;122858;-82
2022/09/05 11:42:13;;;;;;;6.78;3.00;;;;;;;26.83;41.12;102092.56;4934707;28;122567;-83
2022/09/05 11:45:00;;;;;;;4.88;3.22;;;;;;;26.83;40.40;102095.38;4936819;28;124307;-81
2022/09/05 11:47:54;;;;;;;4.20;2.93;;;;;;;26.86;40.31;102091.50;4906906;28;122967;-83
2022/09/05 11:50:47;;;;;;;5.28;3.17;;;;;;;26.90;39.67;102080.69;4934154;28;123030;-82
2022/09/05 11:53:32;;;;;;;7.28;3.22;;;;;;;26.91;39.61;102082.22;4907077;28;122575;-83
2022/09/05 11:56:16;;;;;;;6.03;3.38;;;;;;;26.98;39.01;102082.91;4934377;28;123598;-82
2022/09/05 11:58:56;;;;;;;5.13;3.25;;;;;;;26.95;38.65;102084.72;4936653;28;122996;-81
2022/09/05 12:01:49;;;;;;;7.28;3.05;;;;;;;26.95;38.93;102081.16;4924111;28;122067;-83
2022/09/05 12:04:39;;;;;;;7.53;3.08;;;;;;;26.96;39.64;102091.13;4937475;28;122562;-82
2022/09/05 12:07:16;;;;;;;7.00;3.10;;;;;;;26.96;40.07;102072.16;4911940;28;125727;-82
2022/09/05 12:10:15;;;;;;;5.13;2.90;;;;;;;27.02;40.66;102080.59;4937383;28;123450;-83
2022/09/05 12:13:08;;;;;;;7.27;3.40;;;;;;;27.00;40.00;102069.84;4918896;28;126130;-82
2022/09/05 12:15:34;;;;;;;5.60;3.50;;;;;;;27.03;39.08;102076.47;4924526;28;122486;-81
2022/09/05 12:18:18;;;;;;;6.32;3.30;;;;;;;26.98;38.84;102080.88;4919962;28;124844;-83
2022/09/05 12:21:11;;;;;;;7.90;3.20;;;;;;;26.97;38.75;102078.56;4917677;28;123087;-81
2022/09/05 12:23:56;;;;;;;6.68;3.08;;;;;;;26.94;38.48;102074.75;4904019;28;124447;-83
2022/09/05 12:26:32;;;;;;;7.63;3.33;;;;;;;26.93;38.61;102085.25;4916643;28;125233;-82